createdAt,value
2023-03-20T00:03:06.476Z,8.19
2023-03-20T00:07:18.826Z,8.24
2023-03-20T00:11:41.597Z,8.32
2023-03-20T00:15:55.077Z,8.28
2023-03-20T00:20:14.211Z,8.56
2023-03-20T00:24:26.737Z,8.48
2023-03-20T00:28:44.487Z,8.45
2023-03-20T00:32:58.967Z,8.27
2023-03-20T00:37:12.094Z,8.23
2023-03-20T00:41:43.544Z,8.25
2023-03-20T00:45:56.346Z,8.36
2023-03-20T00:50:21.069Z,8.18
2023-03-20T00:54:33.676Z,8.25
2023-03-20T00:58:46.110Z,8.66
2023-03-20T01:02:59.328Z,8.45
2023-03-20T01:07:15.156Z,8.48
2023-03-20T01:11:28.202Z,8.46
2023-03-20T01:15:41.310Z,8.26
2023-03-20T01:19:54.084Z,8.37
2023-03-20T01:24:06.753Z,8.56
2023-03-20T01:28:24.059Z,8.48
2023-03-20T01:32:36.472Z,8.39
2023-03-20T01:36:58.411Z,8.36
2023-03-20T01:41:15.221Z,8.26
2023-03-20T01:45:33.579Z,8.06
2023-03-20T01:50:11.154Z,8.24
2023-03-20T01:54:38.032Z,8.45
2023-03-20T01:59:00.630Z,8.20
2023-03-20T02:03:13.366Z,7.95
2023-03-20T02:07:51.481Z,7.75
2023-03-20T02:12:05.220Z,7.90
2023-03-20T02:16:18.436Z,8.16
2023-03-20T02:20:55.808Z,8.40
2023-03-20T02:25:17.719Z,8.16
2023-03-20T02:29:50.987Z,7.94
2023-03-20T02:34:20.751Z,7.92
2023-03-20T02:39:06.834Z,7.94
2023-03-20T02:43:39.367Z,7.83
2023-03-20T02:48:25.054Z,7.82
2023-03-20T02:53:13.099Z,8.02
2023-03-20T02:58:06.114Z,8.03
2023-03-20T03:02:28.046Z,7.95
2023-03-20T03:06:45.153Z,7.80
2023-03-20T03:11:08.975Z,7.89
2023-03-20T03:15:30.786Z,7.82
2023-03-20T03:19:50.311Z,7.77
2023-03-20T03:24:03.053Z,7.62
2023-03-20T03:28:37.873Z,7.69
2023-03-20T03:33:02.732Z,7.66
2023-03-20T03:37:29.738Z,7.52
2023-03-20T03:41:48.453Z,7.54
2023-03-20T03:46:14.402Z,7.50
2023-03-20T03:50:31.969Z,7.58
2023-03-20T03:54:49.919Z,7.63
2023-03-20T03:59:25.025Z,7.62
2023-03-20T04:03:56.520Z,7.32
2023-03-20T04:08:09.315Z,7.14
2023-03-20T04:12:37.028Z,6.99
2023-03-20T04:16:51.069Z,6.93
2023-03-20T04:21:04.638Z,7.08
2023-03-20T04:25:23.295Z,7.04
2023-03-20T04:29:39.350Z,7.09
2023-03-20T04:34:14.655Z,7.24
2023-03-20T04:38:51.236Z,7.78
2023-03-20T04:43:03.942Z,7.76
2023-03-20T04:47:17.068Z,7.63
2023-03-20T04:51:29.737Z,8.01
2023-03-20T04:55:44.425Z,7.76
2023-03-20T04:59:57.990Z,7.56
2023-03-20T05:04:10.765Z,7.50
2023-03-20T05:08:23.197Z,7.62
2023-03-20T05:12:39.921Z,7.72
2023-03-20T05:17:12.928Z,7.71
2023-03-20T05:21:48.090Z,7.82
2023-03-20T05:26:18.765Z,7.67
2023-03-20T05:30:49.888Z,7.81
2023-03-20T05:35:25.377Z,7.93
2023-03-20T05:39:44.600Z,7.93
2023-03-20T05:44:13.105Z,7.83
2023-03-20T05:48:35.642Z,7.95
2023-03-20T05:53:00.106Z,7.96
2023-03-20T05:57:28.549Z,8.05
2023-03-20T06:01:50.139Z,8.27
2023-03-20T06:06:09.268Z,8.49
2023-03-20T06:10:22.488Z,8.79
2023-03-20T06:14:36.522Z,9.07
2023-03-20T06:18:52.818Z,9.41
2023-03-20T06:23:05.627Z,9.67
2023-03-20T06:27:18.415Z,9.97
2023-03-20T06:31:33.901Z,10.06
2023-03-20T06:35:48.631Z,10.38
2023-03-20T06:40:01.217Z,10.67
2023-03-20T06:44:15.614Z,10.94
2023-03-20T06:48:51.922Z,11.19
2023-03-20T06:53:07.273Z,11.40
2023-03-20T06:57:27.680Z,11.69
2023-03-20T07:01:40.748Z,11.86
2023-03-20T07:05:53.310Z,12.15
2023-03-20T07:10:08.163Z,12.45
2023-03-20T07:14:20.781Z,12.05
2023-03-20T07:18:47.406Z,12.39
2023-03-20T07:23:00.108Z,12.50
2023-03-20T07:27:16.777Z,13.18
2023-03-20T07:31:31.488Z,13.94
2023-03-20T07:36:07.166Z,14.37
2023-03-20T07:40:19.894Z,14.50
2023-03-20T07:44:39.155Z,14.58
2023-03-20T07:48:58.432Z,14.99
2023-03-20T07:53:10.902Z,14.94
2023-03-20T07:57:23.303Z,15.23
2023-03-20T08:01:35.777Z,15.24
2023-03-20T08:05:48.089Z,15.20
2023-03-20T08:10:00.570Z,14.68
2023-03-20T08:14:13.365Z,14.90
2023-03-20T08:18:25.780Z,14.67
2023-03-20T08:22:38.243Z,15.40
2023-03-20T08:26:50.719Z,15.61
2023-03-20T08:31:04.143Z,15.39
2023-03-20T08:35:32.166Z,16.00
2023-03-20T08:39:47.525Z,15.79
2023-03-20T08:44:01.842Z,16.66
2023-03-20T08:48:14.263Z,16.77
2023-03-20T08:52:27.761Z,16.70
2023-03-20T08:56:40.167Z,16.71
2023-03-20T09:00:52.450Z,16.50
2023-03-20T09:05:05.065Z,16.69
2023-03-20T09:09:20.281Z,17.04
2023-03-20T09:13:32.693Z,17.28
2023-03-20T09:17:45.160Z,17.33
2023-03-20T09:21:57.685Z,18.30
2023-03-20T09:26:10.107Z,18.22
2023-03-20T09:30:24.215Z,17.98
2023-03-20T09:34:36.570Z,18.03
2023-03-20T09:38:49.205Z,18.39
2023-03-20T09:43:27.288Z,18.23
2023-03-20T09:48:17.276Z,18.58
2023-03-20T09:52:35.004Z,17.84
2023-03-20T09:56:47.490Z,18.11
2023-03-20T10:01:03.319Z,18.32
2023-03-20T10:05:39.453Z,19.08
2023-03-20T10:09:51.842Z,19.50
2023-03-20T10:14:19.016Z,19.68
2023-03-20T10:18:36.598Z,18.63
2023-03-20T10:22:55.037Z,18.75
2023-03-20T10:27:21.357Z,19.00
2023-03-20T10:31:52.200Z,19.83
2023-03-20T10:36:34.208Z,19.43
2023-03-20T10:40:47.636Z,20.20
2023-03-20T10:45:19.944Z,20.00
2023-03-20T10:49:42.436Z,20.09
2023-03-20T10:54:01.624Z,20.90
2023-03-20T10:58:37.682Z,20.70
2023-03-20T11:02:50.296Z,20.54
2023-03-20T11:07:24.177Z,20.18
2023-03-20T11:11:36.703Z,20.11
2023-03-20T11:15:49.067Z,21.20
2023-03-20T11:20:06.129Z,20.42
2023-03-20T11:24:27.082Z,20.47
2023-03-20T11:28:48.519Z,20.22
2023-03-20T11:33:03.702Z,20.23
2023-03-20T11:37:35.937Z,20.37
2023-03-20T11:41:52.467Z,20.04
2023-03-20T11:46:06.675Z,19.86
2023-03-20T11:50:36.946Z,18.93
2023-03-20T11:54:53.388Z,20.08
2023-03-20T11:59:18.536Z,22.18
2023-03-20T12:03:56.078Z,21.32
2023-03-20T12:08:20.439Z,22.10
2023-03-20T12:12:45.942Z,21.99
2023-03-20T12:17:13.059Z,20.12
2023-03-20T12:21:41.417Z,19.29
2023-03-20T12:26:14.017Z,20.01
2023-03-20T12:30:51.867Z,20.04
2023-03-20T12:35:25.366Z,20.14
2023-03-20T12:39:42.732Z,19.47
2023-03-20T12:44:10.191Z,19.20
2023-03-20T12:48:56.685Z,18.97
2023-03-20T12:53:33.250Z,18.70
2023-03-20T12:58:03.999Z,18.62
2023-03-20T13:02:40.642Z,18.39
2023-03-20T13:06:55.070Z,18.65
2023-03-20T13:11:31.510Z,17.92
2023-03-20T13:15:59.158Z,17.89
2023-03-20T13:20:33.008Z,17.53
2023-03-20T13:24:50.920Z,17.61
2023-03-20T13:29:08.932Z,17.82
2023-03-20T13:33:27.187Z,17.72
2023-03-20T13:37:47.837Z,17.68
2023-03-20T13:42:02.081Z,17.93
2023-03-20T13:46:39.876Z,17.93
2023-03-20T13:51:15.629Z,17.30
2023-03-20T13:55:36.970Z,17.47
2023-03-20T14:00:09.234Z,17.21
2023-03-20T14:04:24.460Z,16.87
2023-03-20T14:08:37.239Z,16.67
2023-03-20T14:12:59.162Z,16.58
2023-03-20T14:17:26.974Z,16.12
2023-03-20T14:21:39.394Z,16.10
2023-03-20T14:25:55.343Z,16.54
2023-03-20T14:30:46.628Z,16.48
2023-03-20T14:35:28.137Z,16.27
2023-03-20T14:39:57.712Z,15.91
2023-03-20T14:44:36.443Z,15.66
2023-03-20T14:48:53.571Z,15.48
2023-03-20T14:53:21.534Z,15.59
2023-03-20T14:57:52.843Z,15.44
2023-03-20T15:02:06.969Z,15.60
2023-03-20T15:06:22.981Z,15.55
2023-03-20T15:10:44.261Z,15.37
2023-03-20T15:15:01.652Z,14.98
2023-03-20T15:19:19.390Z,14.69
2023-03-20T15:23:34.553Z,14.04
2023-03-20T15:27:52.093Z,14.74
2023-03-20T15:32:14.381Z,15.11
2023-03-20T15:36:35.067Z,14.86
2023-03-20T15:40:51.496Z,14.61
2023-03-20T15:45:22.477Z,14.66
2023-03-20T15:49:35.000Z,14.51
2023-03-20T15:53:51.602Z,14.41
2023-03-20T15:58:06.039Z,14.52
2023-03-20T16:02:21.517Z,14.51
2023-03-20T16:06:46.819Z,14.41
2023-03-20T16:11:17.049Z,14.30
2023-03-20T16:15:32.987Z,14.28
2023-03-20T16:19:46.366Z,14.21
2023-03-20T16:24:01.840Z,14.19
2023-03-20T16:28:17.257Z,14.13
2023-03-20T16:32:39.533Z,14.01
2023-03-20T16:36:57.879Z,13.97
2023-03-20T16:41:34.138Z,13.88
2023-03-20T16:45:55.337Z,13.85
2023-03-20T16:50:24.678Z,13.82
2023-03-20T16:54:37.544Z,13.77
2023-03-20T16:58:50.080Z,13.71
2023-03-20T17:03:17.738Z,13.61
2023-03-20T17:07:34.543Z,13.54
2023-03-20T17:11:51.890Z,13.49
2023-03-20T17:16:04.592Z,13.36
2023-03-20T17:20:24.894Z,13.34
2023-03-20T17:24:37.374Z,13.34
2023-03-20T17:28:49.977Z,13.22
2023-03-20T17:33:06.143Z,13.15
2023-03-20T17:37:25.363Z,13.11
2023-03-20T17:41:38.573Z,13.06
2023-03-20T17:45:51.071Z,13.07
2023-03-20T17:50:03.514Z,13.04
2023-03-20T17:54:16.757Z,12.99
2023-03-20T17:58:29.346Z,12.99
2023-03-20T18:02:41.679Z,12.94
2023-03-20T18:06:54.260Z,12.85
2023-03-20T18:11:08.456Z,12.79
2023-03-20T18:15:24.138Z,12.70
2023-03-20T18:19:36.640Z,12.52
2023-03-20T18:23:49.003Z,12.46
2023-03-20T18:28:02.806Z,12.34
2023-03-20T18:32:15.309Z,12.11
2023-03-20T18:36:28.292Z,11.89
2023-03-20T18:40:42.928Z,11.56
2023-03-20T18:44:55.367Z,11.24
2023-03-20T18:49:10.661Z,10.98
2023-03-20T18:53:23.261Z,11.21
2023-03-20T18:57:36.866Z,11.27
2023-03-20T19:01:49.673Z,11.34
2023-03-20T19:06:02.148Z,11.43
2023-03-20T19:10:41.621Z,11.51
2023-03-20T19:14:53.990Z,11.49
2023-03-20T19:19:08.047Z,11.41
2023-03-20T19:23:23.524Z,11.07
2023-03-20T19:27:36.122Z,10.92
2023-03-20T19:31:48.613Z,10.94
2023-03-20T19:36:04.376Z,11.45
2023-03-20T19:40:28.878Z,11.25
2023-03-20T19:44:41.504Z,11.46
2023-03-20T19:48:57.834Z,11.61
2023-03-20T19:53:15.739Z,11.74
2023-03-20T19:57:29.191Z,11.75
2023-03-20T20:01:41.643Z,11.77
2023-03-20T20:05:54.553Z,11.98
2023-03-20T20:10:07.448Z,12.02
2023-03-20T20:14:23.638Z,11.86
2023-03-20T20:18:36.830Z,11.87
2023-03-20T20:22:49.970Z,11.89
2023-03-20T20:27:16.280Z,11.87
2023-03-20T20:31:32.035Z,11.77
2023-03-20T20:36:11.489Z,11.81
2023-03-20T20:40:19.415Z,11.91
2023-03-20T20:44:31.956Z,11.89
2023-03-20T20:48:44.338Z,11.83
2023-03-20T20:52:58.059Z,11.79
2023-03-20T20:57:12.274Z,11.87
2023-03-20T21:01:24.828Z,11.87
2023-03-20T21:05:43.219Z,11.88
2023-03-20T21:09:55.854Z,11.89
2023-03-20T21:14:08.232Z,11.84
2023-03-20T21:18:21.134Z,11.87
2023-03-20T21:22:36.433Z,11.81
2023-03-20T21:26:50.700Z,11.76
2023-03-20T21:31:24.152Z,11.68
2023-03-20T21:35:38.667Z,11.62
2023-03-20T21:39:52.553Z,11.45
2023-03-20T21:44:06.838Z,11.09
2023-03-20T21:48:50.034Z,11.06
2023-03-20T21:53:49.672Z,11.10
2023-03-20T22:02:10.899Z,10.96
2023-03-20T22:11:45.256Z,10.83
2023-03-20T22:16:16.680Z,11.37
2023-03-20T22:25:28.279Z,11.45
2023-03-20T22:29:58.642Z,11.30
2023-03-20T22:43:28.069Z,12.11
2023-03-20T22:47:26.027Z,12.22
2023-03-20T22:51:44.200Z,12.28
2023-03-20T22:56:12.283Z,12.30
2023-03-20T23:00:25.026Z,12.24
2023-03-20T23:04:37.512Z,12.25
2023-03-20T23:08:56.579Z,12.28
2023-03-20T23:13:09.748Z,12.31
2023-03-20T23:17:22.547Z,12.25
2023-03-20T23:21:35.579Z,12.25
2023-03-20T23:25:48.995Z,12.33
2023-03-20T23:30:03.658Z,12.28
2023-03-20T23:34:17.969Z,12.30
2023-03-20T23:38:32.693Z,12.26
2023-03-20T23:42:45.051Z,12.26
2023-03-20T23:46:57.781Z,12.27
2023-03-20T23:51:11.051Z,12.24
2023-03-20T23:55:23.394Z,12.28
2023-03-20T23:59:37.563Z,12.33
